createdAt,value
2023-01-15T00:01:52.870Z,30.07
2023-01-15T00:04:21.408Z,34.93
2023-01-15T00:06:50.640Z,33.57
2023-01-15T00:09:19.315Z,35.37
2023-01-15T00:11:48.214Z,33.33
2023-01-15T00:14:24.487Z,34.80
2023-01-15T00:16:53.199Z,36.67
2023-01-15T00:19:24.120Z,34.17
2023-01-15T00:21:54.132Z,30.87
2023-01-15T00:24:40.750Z,33.63
2023-01-15T00:27:29.468Z,32.50
2023-01-15T00:29:58.177Z,31.00
2023-01-15T00:32:28.403Z,33.73
2023-01-15T00:34:58.928Z,31.10
2023-01-15T00:37:31.030Z,31.03
2023-01-15T01:10:11.307Z,30.43
2023-01-15T01:24:48.546Z,30.53
2023-01-15T01:25:48.525Z,29.67
2023-01-15T01:28:13.325Z,30.43
2023-01-15T01:30:42.015Z,30.73
2023-01-15T01:33:10.805Z,32.80
2023-01-15T01:35:45.366Z,30.07
2023-01-15T01:38:16.131Z,31.90
2023-01-15T01:40:45.097Z,26.90
2023-01-15T01:43:27.742Z,24.60
2023-01-15T01:45:57.332Z,31.13
2023-01-15T01:48:33.242Z,27.33
2023-01-15T01:51:05.674Z,22.67
2023-01-15T01:53:34.511Z,23.40
2023-01-15T01:56:03.608Z,27.10
2023-01-15T01:58:33.857Z,20.73
2023-01-15T02:01:03.214Z,22.70
2023-01-15T02:03:34.869Z,25.87
2023-01-15T02:06:06.271Z,24.40
2023-01-15T02:08:35.249Z,23.70
2023-01-15T02:11:04.892Z,24.03
2023-01-15T02:14:00.997Z,26.00
2023-01-15T02:16:41.753Z,23.70
2023-01-15T02:19:25.990Z,25.07
2023-01-15T02:22:13.437Z,25.47
2023-01-15T02:24:57.364Z,23.37
2023-01-15T02:27:27.078Z,25.87
2023-01-15T02:30:11.211Z,24.27
2023-01-15T02:32:48.664Z,25.27
2023-01-15T02:35:20.380Z,27.27
2023-01-15T02:37:52.005Z,17.23
2023-01-15T02:40:23.375Z,20.93
2023-01-15T02:42:52.651Z,20.90
2023-01-15T02:45:29.776Z,23.80
2023-01-15T02:48:01.412Z,26.40
2023-01-15T02:50:32.954Z,22.20
2023-01-15T02:53:05.838Z,20.17
2023-01-15T02:55:37.442Z,23.07
2023-01-15T02:58:09.466Z,22.40
2023-01-15T03:00:41.172Z,22.53
2023-01-15T03:03:33.828Z,20.80
2023-01-15T03:06:11.423Z,20.47
2023-01-15T03:08:40.315Z,20.17
2023-01-15T03:11:14.512Z,22.47
2023-01-15T03:14:04.070Z,21.83
2023-01-15T03:16:43.917Z,23.07
2023-01-15T03:19:30.550Z,22.80
2023-01-15T03:22:08.016Z,21.13
2023-01-15T03:25:02.474Z,24.37
2023-01-15T03:27:31.180Z,21.77
2023-01-15T03:30:07.065Z,22.07
2023-01-15T03:32:36.724Z,22.20
2023-01-15T03:35:07.912Z,23.53
2023-01-15T03:37:36.660Z,20.60
2023-01-15T03:40:06.897Z,23.37
2023-01-15T03:42:44.676Z,23.00
2023-01-15T03:45:31.183Z,20.07
2023-01-15T03:48:08.311Z,21.50
2023-01-15T03:50:58.288Z,21.97
2023-01-15T03:53:29.840Z,22.50
2023-01-15T03:56:22.473Z,25.80
2023-01-15T03:58:54.003Z,26.33
2023-01-15T04:01:25.784Z,23.40
2023-01-15T04:03:56.887Z,21.13
2023-01-15T04:06:27.635Z,20.50
2023-01-15T04:08:57.491Z,25.10
2023-01-15T04:11:27.817Z,19.47
2023-01-15T04:13:56.503Z,22.53
2023-01-15T04:16:30.480Z,25.70
2023-01-15T04:18:59.913Z,22.20
2023-01-15T04:21:28.489Z,24.70
2023-01-15T04:23:57.213Z,20.53
2023-01-15T04:26:26.204Z,19.60
2023-01-15T04:28:54.878Z,21.50
2023-01-15T04:31:23.546Z,20.97
2023-01-15T04:33:52.193Z,22.23
2023-01-15T04:36:23.253Z,20.37
2023-01-15T04:38:51.981Z,23.70
2023-01-15T04:41:38.400Z,19.93
2023-01-15T04:44:07.226Z,21.83
2023-01-15T04:46:38.857Z,22.63
2023-01-15T04:49:12.726Z,21.53
2023-01-15T04:51:41.965Z,20.53
2023-01-15T04:54:12.737Z,21.40
2023-01-15T04:56:44.226Z,21.73
2023-01-15T04:59:13.528Z,20.00
2023-01-15T05:01:51.365Z,22.90
2023-01-15T05:04:13.129Z,21.97
2023-01-15T05:06:41.830Z,26.17
2023-01-15T05:09:10.564Z,19.50
2023-01-15T05:17:36.856Z,17.53
2023-01-15T05:20:42.207Z,16.10
2023-01-15T05:32:32.731Z,18.87
2023-01-15T05:35:22.103Z,17.30
2023-01-15T05:38:04.530Z,17.37
2023-01-15T05:40:42.570Z,16.93
2023-01-15T05:43:11.541Z,17.27
2023-01-15T05:46:00.279Z,16.60
2023-01-15T05:48:37.503Z,14.27
2023-01-15T05:51:13.835Z,14.97
2023-01-15T05:53:50.636Z,14.10
2023-01-15T05:56:30.082Z,14.77
2023-01-15T05:59:22.274Z,14.07
2023-01-15T06:01:53.875Z,17.57
2023-01-15T06:04:24.865Z,17.37
2023-01-15T06:06:55.847Z,14.60
2023-01-15T06:09:29.799Z,13.67
2023-01-15T06:11:58.546Z,17.47
2023-01-15T06:14:27.397Z,13.87
2023-01-15T06:16:58.475Z,14.27
2023-01-15T06:19:30.014Z,13.07
2023-01-15T06:22:00.254Z,17.50
2023-01-15T06:24:36.298Z,20.20
2023-01-15T06:27:11.783Z,16.73
2023-01-15T06:39:41.026Z,15.40
2023-01-15T06:46:21.760Z,18.90
2023-01-15T06:52:32.610Z,18.23
2023-01-15T06:55:01.466Z,20.03
2023-01-15T06:58:00.783Z,21.63
2023-01-15T07:00:34.372Z,16.83
2023-01-15T07:03:23.933Z,20.07
2023-01-15T07:05:52.811Z,22.23
2023-01-15T07:12:04.042Z,33.47
2023-01-15T07:14:42.835Z,32.00
2023-01-15T07:25:57.849Z,33.80
2023-01-15T07:28:26.522Z,30.73
2023-01-15T07:30:58.203Z,29.67
2023-01-15T07:33:26.873Z,28.47
2023-01-15T07:35:56.773Z,34.17
2023-01-15T07:38:25.579Z,29.60
2023-01-15T07:41:16.697Z,28.70
2023-01-15T07:44:03.862Z,28.53
2023-01-15T07:48:01.551Z,35.50
2023-01-15T07:56:32.612Z,28.77
2023-01-15T08:02:29.513Z,27.13
2023-01-15T08:05:07.970Z,22.83
2023-01-15T08:08:03.783Z,22.10
2023-01-15T08:10:39.985Z,17.93
2023-01-15T08:13:30.234Z,18.17
2023-01-15T08:16:00.907Z,22.40
2023-01-15T08:18:30.375Z,21.97
2023-01-15T08:20:59.492Z,20.17
2023-01-15T08:23:28.681Z,19.70
2023-01-15T08:26:02.077Z,18.83
2023-01-15T08:28:31.174Z,22.50
2023-01-15T08:31:01.595Z,20.30
2023-01-15T08:33:37.071Z,20.47
2023-01-15T08:36:08.055Z,28.53
2023-01-15T08:56:45.823Z,25.97
2023-01-15T09:02:05.322Z,33.63
2023-01-15T09:15:07.685Z,28.67
2023-01-15T09:17:41.508Z,28.47
2023-01-15T09:20:17.115Z,29.40
2023-01-15T09:25:37.642Z,30.07
2023-01-15T09:28:11.632Z,34.33
2023-01-15T09:30:40.663Z,37.00
2023-01-15T09:36:49.086Z,38.57
2023-01-15T09:46:20.316Z,36.77
2023-01-15T10:37:35.447Z,27.07
2023-01-15T10:40:18.785Z,25.73
2023-01-15T10:43:08.047Z,24.90
2023-01-15T10:55:51.963Z,27.83
2023-01-15T10:58:43.610Z,37.20
2023-01-15T11:01:20.041Z,30.73
2023-01-15T11:03:50.753Z,39.83
2023-01-15T11:06:22.636Z,27.97
2023-01-15T11:09:13.903Z,30.73
2023-01-15T11:12:02.291Z,28.40
2023-01-15T11:15:00.379Z,26.90
2023-01-15T11:17:49.616Z,23.93
2023-01-15T11:20:38.891Z,25.63
2023-01-15T11:23:13.471Z,23.50
2023-01-15T11:25:51.498Z,25.07
2023-01-15T11:28:24.312Z,25.80
2023-01-15T11:31:04.386Z,18.07
2023-01-15T11:33:33.525Z,24.17
2023-01-15T11:36:05.868Z,21.80
2023-01-15T11:39:03.140Z,21.80
2023-01-15T11:42:26.056Z,17.57
2023-01-15T11:48:22.667Z,15.83
2023-01-15T11:50:59.139Z,16.40
2023-01-15T11:53:31.279Z,16.97
2023-01-15T11:56:03.547Z,18.33
2023-01-15T11:58:40.763Z,12.43
2023-01-15T12:01:09.683Z,14.27
2023-01-15T12:03:41.256Z,14.57
2023-01-15T12:06:13.389Z,19.07
2023-01-15T12:09:03.354Z,17.33
2023-01-15T12:15:15.540Z,17.23
2023-01-15T12:18:06.591Z,16.23
2023-01-15T12:20:56.810Z,12.83
2023-01-15T12:23:31.606Z,14.97
2023-01-15T12:27:13.413Z,14.47
2023-01-15T12:30:15.994Z,15.17
2023-01-15T12:32:47.810Z,14.97
2023-01-15T12:35:32.510Z,15.33
2023-01-15T12:38:15.787Z,14.30
2023-01-15T12:41:06.084Z,13.67
2023-01-15T12:43:54.177Z,17.53
2023-01-15T12:46:25.807Z,13.13
2023-01-15T12:49:06.515Z,15.90
2023-01-15T12:51:41.140Z,12.93
2023-01-15T12:54:19.822Z,15.03
2023-01-15T12:57:10.037Z,14.13
2023-01-15T12:59:53.968Z,13.00
2023-01-15T13:02:57.072Z,12.53
2023-01-15T13:05:50.119Z,14.23
2023-01-15T13:08:24.808Z,13.00
2023-01-15T13:10:53.801Z,11.90
2023-01-15T13:13:28.002Z,15.77
2023-01-15T13:16:17.880Z,14.77
2023-01-15T13:19:01.816Z,11.63
2023-01-15T13:21:33.444Z,13.80
2023-01-15T13:24:57.430Z,13.00
2023-01-15T13:27:48.650Z,16.60
2023-01-15T13:33:35.376Z,14.20
2023-01-15T13:36:23.479Z,15.17
2023-01-15T13:38:55.109Z,17.63
2023-01-15T13:41:44.153Z,13.73
2023-01-15T13:44:23.901Z,15.37
2023-01-15T13:47:04.522Z,18.00
2023-01-15T13:49:39.196Z,15.17
2023-01-15T13:52:13.515Z,15.17
2023-01-15T13:54:43.380Z,16.57
2023-01-15T13:57:32.595Z,17.47
2023-01-15T14:00:04.508Z,16.50
2023-01-15T14:02:35.939Z,14.33
2023-01-15T14:05:16.924Z,16.30
2023-01-15T14:07:51.465Z,15.27
2023-01-15T14:10:23.186Z,15.77
2023-01-15T14:13:17.272Z,15.40
2023-01-15T14:16:12.051Z,19.20
2023-01-15T14:19:10.039Z,16.20
2023-01-15T14:21:47.827Z,18.37
2023-01-15T14:31:02.006Z,16.67
2023-01-15T14:56:05.574Z,22.93
2023-01-15T15:02:50.143Z,23.00
2023-01-15T15:05:31.482Z,19.93
2023-01-15T15:08:06.761Z,20.73
2023-01-15T15:13:40.390Z,25.73
2023-01-15T15:18:24.820Z,24.13
2023-01-15T15:19:38.652Z,26.63
2023-01-15T15:22:10.547Z,25.70
2023-01-15T15:24:42.184Z,20.57
2023-01-15T15:34:50.691Z,24.37
2023-01-15T15:37:22.051Z,21.60
2023-01-15T15:40:19.635Z,25.17
2023-01-15T15:43:15.148Z,25.50
2023-01-15T15:46:04.450Z,30.27
2023-01-15T15:48:48.599Z,28.60
2023-01-15T15:51:42.900Z,29.50
2023-01-15T15:54:22.049Z,30.10
2023-01-15T15:59:53.588Z,28.97
2023-01-15T16:02:35.623Z,27.77
2023-01-15T16:05:07.385Z,31.17
2023-01-15T16:18:39.061Z,58.10
2023-01-15T16:21:14.151Z,37.60
2023-01-15T16:25:24.809Z,35.43
2023-01-15T16:28:02.202Z,39.43
2023-01-15T16:57:33.881Z,50.43
2023-01-15T17:03:29.979Z,52.57
2023-01-15T17:09:08.485Z,57.60
2023-01-15T17:17:29.939Z,69.03
2023-01-15T17:20:00.182Z,88.00
2023-01-15T17:49:06.914Z,35.53
2023-01-15T17:51:35.686Z,37.37
2023-01-15T19:59:43.509Z,46.50
2023-01-15T20:02:18.623Z,40.50
2023-01-15T20:04:47.969Z,39.13
2023-01-15T20:07:17.216Z,31.53
2023-01-15T20:09:47.862Z,37.57
2023-01-15T20:12:36.120Z,34.93
2023-01-15T20:15:05.091Z,42.70
2023-01-15T20:17:34.905Z,47.40
2023-01-15T20:20:06.658Z,36.63
2023-01-15T20:22:38.428Z,35.73
2023-01-15T20:25:09.666Z,35.87
2023-01-15T20:27:46.652Z,42.43
2023-01-15T20:30:15.986Z,37.47
2023-01-15T20:32:56.175Z,38.07
2023-01-15T20:35:34.507Z,35.47
2023-01-15T20:38:02.993Z,37.03
2023-01-15T20:40:39.130Z,34.60
2023-01-15T20:43:25.866Z,37.57
2023-01-15T20:45:59.033Z,33.23
2023-01-15T20:48:47.190Z,34.77
2023-01-15T20:51:19.958Z,37.93
2023-01-15T20:53:49.699Z,40.17
2023-01-15T20:56:21.528Z,40.03
2023-01-15T20:58:56.572Z,36.03
2023-01-15T21:01:27.300Z,35.73
2023-01-15T21:04:09.314Z,45.47
2023-01-15T21:06:47.141Z,38.17
2023-01-15T21:09:19.540Z,41.60
2023-01-15T21:11:56.279Z,39.40
2023-01-15T21:18:26.575Z,41.03
2023-01-15T21:22:52.225Z,49.23
2023-01-15T21:30:59.353Z,58.03
2023-01-15T21:36:48.904Z,48.67
2023-01-15T21:39:23.591Z,49.97
2023-01-15T21:42:19.645Z,56.40
2023-01-15T21:44:56.373Z,59.10
2023-01-15T21:50:31.966Z,59.73
2023-01-15T21:59:29.183Z,63.60
2023-01-15T22:00:03.527Z,54.73
2023-01-15T22:05:03.685Z,63.97
2023-01-15T22:20:12.330Z,73.90
2023-01-15T22:22:55.778Z,73.03
2023-01-15T22:37:45.934Z,70.83
2023-01-15T22:40:22.704Z,74.80
2023-01-15T22:43:06.273Z,74.30
2023-01-15T22:49:04.885Z,81.37
2023-01-15T22:52:07.305Z,80.20
2023-01-15T22:54:48.591Z,79.43
2023-01-15T22:57:34.983Z,72.87
2023-01-15T23:00:17.886Z,74.37
2023-01-15T23:03:02.221Z,72.13
2023-01-15T23:05:34.059Z,77.47
2023-01-15T23:14:59.888Z,76.17
2023-01-15T23:29:27.935Z,78.37
2023-01-15T23:32:09.832Z,72.93
2023-01-15T23:34:57.832Z,73.50
2023-01-15T23:37:28.171Z,72.57
2023-01-15T23:39:56.960Z,69.90
2023-01-15T23:42:48.696Z,77.93
2023-01-15T23:45:37.755Z,85.83
2023-01-15T23:48:21.693Z,72.40
2023-01-15T23:53:41.231Z,82.17
2023-01-15T23:56:12.221Z,77.73
2023-01-15T23:58:50.659Z,71.47
